Time;durP1;ratioP1;P1;durP2;ratioP2;P2;SDS_P1;SDS_P2;PMS_P1;PMS_P2;Temp;Humidity;BMP_temperature;BMP_pressure;BME280_temperature;BME280_humidity;BME280_pressure;Samples;Min_cycle;Max_cycle;Signal;HPM_P1;HPM_P2
2022/01/28 00:00:30;;;;;;;23.85;5.13;;;;;;;4.82;100.00;103122.72;5287542;28;20035;-77
2022/01/28 00:03:05;;;;;;;10.75;4.25;;;;;;;4.86;100.00;103116.31;5283268;28;20030;-77
2022/01/28 00:05:38;;;;;;;18.17;3.88;;;;;;;4.84;100.00;103110.19;5288031;28;20024;-77
2022/01/28 00:08:11;;;;;;;25.67;4.63;;;;;;;4.88;100.00;103109.13;5288000;28;20051;-77
2022/01/28 00:10:42;;;;;;;15.68;3.97;;;;;;;4.84;100.00;103120.84;5288087;28;20394;-77
2022/01/28 00:38:13;;;;;;;13.20;3.30;;;;;;;4.68;100.00;103167.72;5286405;28;20027;-77
2022/01/28 00:40:44;;;;;;;14.40;3.72;;;;;;;4.68;100.00;103183.66;5286506;28;20020;-77
2022/01/28 00:43:14;;;;;;;16.15;2.75;;;;;;;4.74;100.00;103187.84;5286330;28;20038;-77
2022/01/28 00:45:45;;;;;;;23.20;3.63;;;;;;;4.75;100.00;103198.41;5286275;28;20023;-77
2022/01/28 00:48:15;;;;;;;13.95;2.88;;;;;;;4.73;100.00;103202.94;5286499;28;20241;-77
2022/01/28 00:50:46;;;;;;;20.40;3.13;;;;;;;4.64;100.00;103193.56;5286472;28;20095;-77
2022/01/28 00:53:16;;;;;;;16.25;3.28;;;;;;;4.64;100.00;103204.22;5286116;28;20455;-77
2022/01/28 00:55:47;;;;;;;28.48;6.28;;;;;;;4.62;100.00;103206.09;5285857;28;20482;-77
2022/01/28 00:58:17;;;;;;;22.77;4.15;;;;;;;4.53;100.00;103200.34;5285934;28;20023;-77
2022/01/28 01:00:47;;;;;;;15.68;3.15;;;;;;;4.44;100.00;103200.75;5285994;28;20510;-77
2022/01/28 01:03:18;;;;;;;25.88;3.70;;;;;;;4.33;100.00;103204.75;5267379;28;20534;-77
2022/01/28 01:05:48;;;;;;;22.30;3.55;;;;;;;4.23;100.00;103192.78;5286153;28;20153;-77
2022/01/28 01:08:19;;;;;;;21.33;4.15;;;;;;;4.13;100.00;103194.13;5285831;28;20055;-77
2022/01/28 01:10:52;;;;;;;18.02;3.58;;;;;;;4.06;100.00;103198.81;5285708;28;20165;-77
2022/01/28 01:13:22;;;;;;;12.27;3.03;;;;;;;4.06;100.00;103196.16;5285845;28;20171;-77
2022/01/28 01:15:57;;;;;;;17.50;4.18;;;;;;;4.05;100.00;103199.75;5285087;28;20569;-77
2022/01/28 01:18:36;;;;;;;21.75;3.55;;;;;;;4.00;100.00;103200.91;5285672;28;20406;-77
2022/01/28 01:21:12;;;;;;;25.02;4.00;;;;;;;3.97;100.00;103206.38;5285667;28;20016;-77
2022/01/28 01:23:50;;;;;;;13.90;2.92;;;;;;;3.96;100.00;103201.94;5285770;28;20059;-77
2022/01/28 01:26:31;;;;;;;16.10;3.42;;;;;;;3.99;100.00;103215.13;5285480;28;20031;-77
2022/01/28 01:29:06;;;;;;;19.33;3.75;;;;;;;3.93;100.00;103218.91;5267949;28;20024;-83
2022/01/28 01:31:40;;;;;;;20.35;3.55;;;;;;;3.85;100.00;103223.66;5264689;28;20024;-82
2022/01/28 01:34:16;;;;;;;20.30;2.58;;;;;;;3.77;100.00;103224.00;5270025;28;20023;-80
2022/01/28 01:36:46;;;;;;;20.98;4.65;;;;;;;3.71;100.00;103223.38;5288560;28;20027;-80
2022/01/28 01:39:30;;;;;;;23.98;3.30;;;;;;;3.68;100.00;103219.06;5269731;28;20097;-78
2022/01/28 01:42:29;;;;;;;26.20;3.70;;;;;;;3.68;100.00;103211.09;5284638;28;20123;-79
2022/01/28 01:45:39;;;;;;;19.90;3.63;;;;;;;3.64;100.00;103206.84;5286978;28;20011;-79
2022/01/28 01:53:33;;;;;;;18.65;3.28;;;;;;;3.47;100.00;103218.16;5288750;28;20020;-80
2022/01/28 01:56:04;;;;;;;9.13;2.95;;;;;;;3.43;100.00;103228.97;5287958;28;20119;-79
2022/01/28 01:58:35;;;;;;;18.02;6.18;;;;;;;3.41;100.00;103228.13;5288338;28;20031;-78
2022/01/28 02:01:06;;;;;;;21.55;3.67;;;;;;;3.44;100.00;103226.25;5286893;28;20027;-79
2022/01/28 02:03:36;;;;;;;18.45;3.40;;;;;;;3.43;100.00;103228.97;5286145;28;20081;-79
2022/01/28 02:06:07;;;;;;;17.20;3.63;;;;;;;3.34;100.00;103222.22;5287600;28;20028;-78
2022/01/28 02:08:38;;;;;;;12.48;3.47;;;;;;;3.24;100.00;103228.81;5286074;28;20102;-78
2022/01/28 02:11:08;;;;;;;29.33;4.25;;;;;;;3.14;100.00;103225.66;5289597;28;20491;-80
2022/01/28 02:13:40;;;;;;;25.42;5.32;;;;;;;3.11;100.00;103231.97;5290062;28;20399;-79
2022/01/28 02:16:10;;;;;;;23.23;5.75;;;;;;;3.13;100.00;103233.69;5289382;28;20024;-79
2022/01/28 02:18:41;;;;;;;32.28;5.40;;;;;;;3.15;100.00;103232.69;5289256;28;20035;-79
2022/01/28 02:21:16;;;;;;;23.33;6.30;;;;;;;3.17;100.00;103222.03;5289059;28;20071;-79
2022/01/28 02:23:51;;;;;;;22.15;6.30;;;;;;;3.15;100.00;103230.03;5289642;28;20024;-79
2022/01/28 02:26:22;;;;;;;23.45;6.15;;;;;;;3.09;100.00;103230.28;5272147;28;20115;-80
2022/01/28 02:28:56;;;;;;;26.48;7.53;;;;;;;3.10;100.00;103239.97;5289372;28;20023;-78
2022/01/28 02:31:28;;;;;;;22.65;7.15;;;;;;;3.07;100.00;103242.75;5288787;28;20057;-78
2022/01/28 02:33:59;;;;;;;26.10;7.72;;;;;;;3.00;100.00;103230.63;5270734;28;20028;-79
2022/01/28 02:36:30;;;;;;;27.45;7.75;;;;;;;2.97;100.00;103246.69;5288853;28;20020;-80
2022/01/28 02:39:02;;;;;;;29.02;8.82;;;;;;;2.96;100.00;103258.19;5288608;28;20039;-79
2022/01/28 02:41:38;;;;;;;30.27;9.75;;;;;;;2.95;100.00;103253.81;5285526;28;20027;-79
2022/01/28 02:47:02;;;;;;;26.13;9.05;;;;;;;2.90;100.00;103243.38;5288935;28;20039;-80
2022/01/28 02:49:36;;;;;;;35.70;10.20;;;;;;;2.88;100.00;103245.25;5288989;28;20024;-79
2022/01/28 02:52:08;;;;;;;29.42;10.55;;;;;;;2.88;100.00;103239.06;5288840;28;20454;-80
2022/01/28 02:54:45;;;;;;;26.67;9.93;;;;;;;2.80;100.00;103245.50;5289230;28;20020;-80
2022/01/28 02:57:23;;;;;;;29.90;11.20;;;;;;;2.74;100.00;103251.06;5289235;28;20032;-79
2022/01/28 02:59:53;;;;;;;30.08;10.48;;;;;;;2.69;100.00;103260.09;5288642;28;20030;-80
2022/01/28 03:02:33;;;;;;;31.20;10.95;;;;;;;2.67;100.00;103252.22;5272290;28;20030;-79
2022/01/28 03:07:53;;;;;;;36.45;12.85;;;;;;;2.69;100.00;103260.97;5288652;28;20027;-78
2022/01/28 03:10:29;;;;;;;37.83;12.10;;;;;;;2.64;100.00;103268.22;5288669;28;20046;-78
2022/01/28 03:15:45;;;;;;;37.50;13.70;;;;;;;2.59;100.00;103271.03;5288499;28;20024;-78
2022/01/28 03:18:20;;;;;;;31.20;13.00;;;;;;;2.55;100.00;103274.69;5290055;28;20055;-79
2022/01/28 03:23:22;;;;;;;40.60;14.10;;;;;;;2.46;100.00;103268.88;5290933;28;20394;-79
2022/01/28 03:25:52;;;;;;;29.65;11.57;;;;;;;2.33;100.00;103264.00;5289861;28;20020;-79
2022/01/28 03:28:23;;;;;;;59.15;14.98;;;;;;;2.25;100.00;103266.06;5290023;28;20027;-79
2022/01/28 03:30:53;;;;;;;47.80;14.98;;;;;;;2.24;100.00;103274.94;5268178;28;20455;-78
2022/01/28 03:33:24;;;;;;;45.30;14.38;;;;;;;2.26;100.00;103272.22;5264453;28;20028;-78
2022/01/28 03:35:54;;;;;;;36.47;15.02;;;;;;;2.30;100.00;103279.13;5289349;28;20020;-78
2022/01/28 03:38:25;;;;;;;50.05;15.30;;;;;;;2.28;100.00;103289.81;5288969;28;20054;-78
2022/01/28 03:40:56;;;;;;;45.00;15.02;;;;;;;2.29;100.00;103298.59;5288614;28;20051;-78
2022/01/28 03:43:27;;;;;;;42.90;15.40;;;;;;;2.27;100.00;103289.88;5270428;28;20536;-78
2022/01/28 03:45:57;;;;;;;47.00;15.77;;;;;;;2.23;100.00;103296.19;5269631;28;20047;-78
2022/01/28 03:48:28;;;;;;;53.72;18.13;;;;;;;2.21;100.00;103290.94;5270240;28;20063;-78
2022/01/28 03:50:58;;;;;;;56.45;24.92;;;;;;;2.22;100.00;103297.97;5270350;28;20038;-78
2022/01/28 03:53:29;;;;;;;50.17;24.67;;;;;;;2.18;100.00;103296.34;5288220;28;20034;-78
2022/01/28 03:55:59;;;;;;;223.55;95.78;;;;;;;2.13;100.00;103300.06;5269242;28;20031;-79
2022/01/28 03:58:30;;;;;;;101.20;46.03;;;;;;;2.14;100.00;103293.84;5288159;28;20107;-78
2022/01/28 04:01:02;;;;;;;59.33;29.60;;;;;;;2.17;100.00;103309.63;5287793;28;20030;-79
2022/01/28 04:11:26;;;;;;;47.33;21.52;;;;;;;2.10;100.00;103292.19;5288242;28;20024;-78
2022/01/28 04:11:45;;;;;;;50.25;22.60;;;;;;;2.11;100.00;103299.22;5284718;28;20483;-79
2022/01/28 04:14:36;;;;;;;59.47;20.40;;;;;;;2.04;100.00;103301.22;5294280;28;20027;-79
2022/01/28 04:19:37;;;;;;;53.47;22.30;;;;;;;2.04;100.00;103307.38;5293144;28;20019;-80
2022/01/28 04:22:08;;;;;;;58.45;19.80;;;;;;;2.02;100.00;103311.00;5293621;28;20023;-79
2022/01/28 04:24:38;;;;;;;50.42;19.20;;;;;;;1.99;100.00;103319.03;5293028;28;20343;-79
2022/01/28 04:27:09;;;;;;;51.10;19.90;;;;;;;1.96;100.00;103333.25;5292794;28;20091;-79
2022/01/28 04:29:39;;;;;;;57.75;19.63;;;;;;;1.97;100.00;103336.78;5292201;28;20040;-79
2022/01/28 04:32:11;;;;;;;51.05;20.25;;;;;;;1.95;100.00;103339.44;5281360;28;20080;-78
2022/01/28 04:34:41;;;;;;;90.65;35.47;;;;;;;1.91;100.00;103340.50;5289515;28;20024;-79
2022/01/28 04:51:22;;;;;;;;;;;;;;;1.75;100.00;103352.47;5288408;28;20046;-78
2022/01/28 04:59:29;;;;;;;70.97;23.83;;;;;;;1.87;100.00;103357.38;5290415;28;20027;-80
2022/01/28 05:07:43;;;;;;;52.17;21.20;;;;;;;1.75;100.00;103358.63;5287196;28;20034;-79
2022/01/28 05:16:18;;;;;;;62.40;23.85;;;;;;;1.67;100.00;103371.22;5287389;28;20070;-79
2022/01/28 05:27:11;;;;;;;69.97;26.55;;;;;;;1.43;100.00;103366.69;5288610;28;20034;-79
2022/01/28 05:29:41;;;;;;;66.47;23.77;;;;;;;1.41;100.00;103366.75;5287415;28;20110;-79
2022/01/28 05:32:12;;;;;;;69.82;24.25;;;;;;;1.53;100.00;103366.34;5276191;28;20035;-79
2022/01/28 05:34:43;;;;;;;55.58;24.80;;;;;;;1.56;100.00;103365.41;5288560;28;20410;-78
2022/01/28 05:37:13;;;;;;;69.10;25.70;;;;;;;1.54;100.00;103367.22;5288065;28;20027;-78
2022/01/28 05:39:44;;;;;;;71.35;24.80;;;;;;;1.46;100.00;103379.84;5288178;28;20031;-78
2022/01/28 05:42:14;;;;;;;69.30;24.48;;;;;;;1.41;100.00;103379.97;5273490;28;20117;-79
2022/01/28 05:44:45;;;;;;;66.32;24.73;;;;;;;1.40;100.00;103375.56;5292913;28;20016;-79
2022/01/28 05:47:16;;;;;;;73.78;28.13;;;;;;;1.42;100.00;103378.19;5292733;28;20071;-80
2022/01/28 05:49:47;;;;;;;72.88;28.23;;;;;;;1.44;100.00;103384.28;5293081;28;20501;-79
2022/01/28 05:52:17;;;;;;;71.82;27.75;;;;;;;1.42;100.00;103388.75;5274639;28;20027;-78
2022/01/28 05:54:48;;;;;;;91.05;33.78;;;;;;;1.36;100.00;103379.22;5288694;28;20376;-80
2022/01/28 05:57:18;;;;;;;69.45;26.77;;;;;;;1.32;100.00;103387.31;5285843;28;20035;-79
2022/01/28 05:59:49;;;;;;;72.03;28.48;;;;;;;1.29;100.00;103383.81;5285643;28;20032;-79
2022/01/28 06:02:19;;;;;;;61.95;26.38;;;;;;;1.28;100.00;103390.03;5281806;28;20016;-78
2022/01/28 06:04:50;;;;;;;73.40;26.20;;;;;;;1.24;100.00;103384.84;5285710;28;20015;-78
2022/01/28 06:07:21;;;;;;;79.95;28.10;;;;;;;1.16;100.00;103382.44;5285505;28;20118;-78
2022/01/28 06:09:51;;;;;;;61.08;26.02;;;;;;;1.09;100.00;103386.16;5286442;28;20035;-78
2022/01/28 06:12:22;;;;;;;70.10;26.67;;;;;;;1.09;100.00;103399.38;5288220;28;20437;-76
2022/01/28 06:14:52;;;;;;;72.55;27.23;;;;;;;1.07;100.00;103403.84;5267223;28;20127;-79
2022/01/28 06:17:23;;;;;;;68.38;27.10;;;;;;;1.04;100.00;103396.84;5285653;28;20110;-80
2022/01/28 06:19:53;;;;;;;71.60;28.00;;;;;;;1.08;100.00;103400.28;5288453;28;20087;-78
2022/01/28 06:22:23;;;;;;;63.55;26.65;;;;;;;1.10;100.00;103405.53;5272659;28;20030;-79
2022/01/28 06:24:54;;;;;;;68.85;27.50;;;;;;;1.04;100.00;103418.00;5292905;28;20027;-79
2022/01/28 06:27:24;;;;;;;57.42;24.25;;;;;;;0.98;100.00;103422.59;5293546;28;20026;-77
2022/01/28 06:29:55;;;;;;;65.90;26.55;;;;;;;1.00;100.00;103418.13;5299714;28;20224;-78
2022/01/28 06:32:26;;;;;;;64.25;25.35;;;;;;;1.02;100.00;103430.41;5296643;28;20107;-76
2022/01/28 06:34:56;;;;;;;73.65;26.77;;;;;;;1.01;100.00;103441.91;5289526;28;20028;-76
2022/01/28 06:37:27;;;;;;;68.53;23.92;;;;;;;0.92;100.00;103446.56;5289320;28;20107;-79
2022/01/28 06:39:58;;;;;;;57.45;25.20;;;;;;;0.85;100.00;103453.78;5256586;28;20024;-76
2022/01/28 06:42:28;;;;;;;64.65;24.83;;;;;;;0.86;100.00;103449.38;5290916;28;20032;-78
2022/01/28 06:44:59;;;;;;;59.38;24.77;;;;;;;0.80;100.00;103457.44;5291642;28;20024;-79
2022/01/28 06:47:29;;;;;;;66.90;24.58;;;;;;;0.69;100.00;103461.22;5292746;28;20027;-79
2022/01/28 06:50:02;;;;;;;54.72;24.40;;;;;;;0.62;100.00;103450.88;5290779;28;20394;-76
2022/01/28 06:52:34;;;;;;;50.45;21.85;;;;;;;0.58;100.00;103458.00;5289151;28;20312;-76
2022/01/28 06:55:06;;;;;;;64.82;24.15;;;;;;;0.57;100.00;103461.53;5289132;28;20066;-76
2022/01/28 06:57:36;;;;;;;61.25;26.42;;;;;;;0.55;100.00;103473.91;5290444;28;20138;-77
2022/01/28 07:00:08;;;;;;;74.72;31.92;;;;;;;0.49;100.00;103477.56;5289739;28;20106;-77
2022/01/28 07:02:39;;;;;;;80.78;30.98;;;;;;;0.45;100.00;103480.31;5288635;28;20236;-77
2022/01/28 07:05:10;;;;;;;84.70;32.90;;;;;;;0.39;100.00;103496.31;5288379;28;20087;-77
2022/01/28 07:07:40;;;;;;;81.78;31.65;;;;;;;0.34;100.00;103491.13;5270299;28;20466;-77
2022/01/28 07:10:11;;;;;;;70.93;28.02;;;;;;;0.28;100.00;103496.56;5288306;28;20470;-77
2022/01/28 07:12:41;;;;;;;97.63;29.92;;;;;;;0.21;100.00;103501.13;5288800;28;20452;-76
2022/01/28 07:15:12;;;;;;;67.35;27.38;;;;;;;0.17;100.00;103499.44;5270140;28;20023;-76
2022/01/28 07:17:42;;;;;;;77.75;26.77;;;;;;;0.10;100.00;103507.53;5288288;28;20508;-77
2022/01/28 07:20:13;;;;;;;70.95;27.05;;;;;;;0.07;100.00;103511.13;5288285;28;20077;-76
2022/01/28 07:22:43;;;;;;;62.00;26.88;;;;;;;0.05;100.00;103526.13;5288400;28;20100;-76
2022/01/28 07:25:14;;;;;;;73.82;28.50;;;;;;;0.07;100.00;103521.69;5288404;28;20016;-76
2022/01/28 07:27:45;;;;;;;87.22;34.00;;;;;;;0.16;100.00;103513.56;5274782;28;20035;-77
2022/01/28 07:30:15;;;;;;;79.85;31.13;;;;;;;0.20;100.00;103525.78;5249608;28;20107;-77
2022/01/28 07:32:49;;;;;;;76.43;29.67;;;;;;;0.18;100.00;103527.59;5287030;28;20051;-77
2022/01/28 07:35:20;;;;;;;81.20;29.95;;;;;;;0.17;100.00;103525.00;5287873;28;20023;-76
2022/01/28 07:37:50;;;;;;;74.50;30.73;;;;;;;0.22;100.00;103529.25;5288528;28;20074;-77
2022/01/28 07:40:21;;;;;;;85.18;31.88;;;;;;;0.30;100.00;103530.84;5288315;28;20030;-77
2022/01/28 07:42:52;;;;;;;85.80;33.53;;;;;;;0.39;100.00;103541.22;5287939;28;20035;-77
2022/01/28 07:45:22;;;;;;;92.18;32.63;;;;;;;0.46;100.00;103542.81;5269292;28;20115;-77
2022/01/28 07:47:53;;;;;;;82.22;32.35;;;;;;;0.50;100.00;103536.53;5288006;28;20030;-77
2022/01/28 07:50:23;;;;;;;95.95;38.70;;;;;;;0.62;100.00;103528.34;5269476;28;20479;-77
2022/01/28 07:52:54;;;;;;;93.90;34.97;;;;;;;0.75;100.00;103532.44;5287847;28;20030;-77
2022/01/28 07:55:24;;;;;;;71.20;29.52;;;;;;;0.71;100.00;103540.47;5287900;28;20019;-80
2022/01/28 07:57:55;;;;;;;66.18;27.25;;;;;;;0.71;100.00;103540.47;5283940;28;20124;-80
2022/01/28 08:00:27;;;;;;;76.55;30.13;;;;;;;0.83;100.00;103539.31;5288658;28;20391;-79
2022/01/28 08:02:57;;;;;;;78.53;28.60;;;;;;;0.91;100.00;103540.00;5283800;28;20118;-80
2022/01/28 08:05:28;;;;;;;75.95;28.05;;;;;;;1.02;100.00;103532.66;5288880;28;20561;-80
2022/01/28 08:08:04;;;;;;;97.00;27.23;;;;;;;1.14;100.00;103534.97;5290423;28;20119;-82
2022/01/28 08:10:35;;;;;;;82.20;24.90;;;;;;;1.31;100.00;103544.25;5290568;28;20032;-80
2022/01/28 08:13:05;;;;;;;51.83;23.45;;;;;;;1.51;100.00;103547.25;5291166;28;20050;-80
2022/01/28 08:15:38;;;;;;;57.30;24.10;;;;;;;1.75;100.00;103549.19;5273807;28;20024;-79
2022/01/28 08:18:14;;;;;;;46.78;22.25;;;;;;;1.99;100.00;103549.41;5275456;28;20037;-80
2022/01/28 08:20:46;;;;;;;60.08;24.58;;;;;;;2.29;100.00;103556.44;5292255;28;20567;-80
2022/01/28 08:23:16;;;;;;;64.03;25.10;;;;;;;2.53;100.00;103561.91;5292900;28;20055;-80
2022/01/28 08:25:48;;;;;;;50.17;22.95;;;;;;;2.70;100.00;103566.66;5291875;28;20051;-81
2022/01/28 08:28:19;;;;;;;46.53;20.35;;;;;;;2.93;100.00;103576.53;5291875;28;20031;-79
2022/01/28 08:30:49;;;;;;;43.22;20.27;;;;;;;3.11;100.00;103581.22;5287498;28;20100;-80
2022/01/28 08:33:20;;;;;;;39.45;14.38;;;;;;;3.10;100.00;103582.13;5280285;28;20076;-79
2022/01/28 08:35:53;;;;;;;26.67;13.75;;;;;;;3.07;100.00;103584.91;5290092;28;20608;-79
2022/01/28 08:38:26;;;;;;;41.28;15.52;;;;;;;3.38;100.00;103588.25;5289797;28;20031;-79
2022/01/28 08:40:59;;;;;;;43.00;15.80;;;;;;;3.76;100.00;103583.34;5290070;28;20041;-78
2022/01/28 08:43:29;;;;;;;41.33;15.27;;;;;;;3.96;100.00;103595.06;5289759;28;20031;-78
2022/01/28 08:46:00;;;;;;;31.25;14.13;;;;;;;4.07;100.00;103591.09;5271491;28;20032;-81
2022/01/28 08:48:30;;;;;;;30.75;14.13;;;;;;;4.29;100.00;103587.63;5289886;28;20020;-79
2022/01/28 08:51:01;;;;;;;34.92;14.52;;;;;;;4.49;100.00;103592.16;5287828;28;20490;-79
2022/01/28 08:53:32;;;;;;;30.95;12.48;;;;;;;4.63;100.00;103592.50;5287154;28;20019;-79
2022/01/28 08:56:03;;;;;;;37.10;14.05;;;;;;;5.00;100.00;103601.66;5289008;28;20463;-80
2022/01/28 08:58:35;;;;;;;35.60;16.83;;;;;;;5.33;100.00;103602.03;5289373;28;20031;-78
2022/01/28 09:01:05;;;;;;;43.28;20.88;;;;;;;5.73;100.00;103590.53;5287929;28;20027;-78
2022/01/28 09:03:36;;;;;;;50.75;21.55;;;;;;;6.17;100.00;103588.53;5283849;28;20027;-78
2022/01/28 09:06:06;;;;;;;43.92;18.52;;;;;;;6.51;100.00;103592.28;5285970;28;20020;-79
2022/01/28 09:08:39;;;;;;;31.75;13.70;;;;;;;7.07;100.00;103593.13;5268282;28;20104;-78
2022/01/28 09:13:59;;;;;;;30.23;13.38;;;;;;;7.42;100.00;103589.53;5286540;28;20024;-79
2022/01/28 09:16:29;;;;;;;27.73;13.48;;;;;;;7.70;100.00;103580.09;5286444;28;20478;-79
2022/01/28 09:19:00;;;;;;;30.42;12.43;;;;;;;8.34;100.00;103573.09;5267884;28;20542;-80
2022/01/28 09:21:31;;;;;;;25.58;10.80;;;;;;;8.37;100.00;103572.94;5268073;28;20023;-79
2022/01/28 09:24:01;;;;;;;26.55;10.98;;;;;;;8.48;100.00;103568.72;5270038;28;20024;-80
2022/01/28 09:26:32;;;;;;;25.88;8.82;;;;;;;8.75;100.00;103570.78;5230197;28;20027;-80
2022/01/28 09:29:04;;;;;;;27.63;11.00;;;;;;;8.72;100.00;103566.44;5264898;28;20019;-80
2022/01/28 09:31:34;;;;;;;28.20;10.45;;;;;;;8.88;100.00;103569.09;5255829;28;20118;-80
2022/01/28 09:34:05;;;;;;;23.25;9.75;;;;;;;9.18;100.00;103568.25;5249334;28;20104;-80
2022/01/28 09:36:35;;;;;;;23.15;10.30;;;;;;;9.05;100.00;103570.81;5246854;28;20032;-80
2022/01/28 09:39:07;;;;;;;18.55;8.73;;;;;;;9.36;100.00;103585.94;5272459;28;20047;-80
2022/01/28 09:41:38;;;;;;;28.58;11.13;;;;;;;9.31;100.00;103578.16;5271676;28;20107;-78
2022/01/28 09:44:10;;;;;;;28.25;10.27;;;;;;;9.64;100.00;103574.41;5268674;28;20020;-80
2022/01/28 09:46:41;;;;;;;30.60;11.65;;;;;;;9.49;100.00;103583.38;5266947;28;20020;-81
2022/01/28 09:49:12;;;;;;;32.40;12.45;;;;;;;9.45;100.00;103595.25;5266975;28;20391;-81
2022/01/28 09:51:42;;;;;;;32.40;15.70;;;;;;;9.71;100.00;103601.69;5265420;28;20016;-81
2022/01/28 09:54:13;;;;;;;26.20;12.30;;;;;;;9.72;100.00;103590.00;5249358;28;20034;-81
2022/01/28 09:56:43;;;;;;;32.47;12.35;;;;;;;9.83;100.00;103592.88;5235759;28;20016;-82
2022/01/28 09:59:13;;;;;;;21.63;10.77;;;;;;;10.15;100.00;103596.25;5269751;28;20019;-82
2022/01/28 10:02:03;;;;;;;22.42;10.30;;;;;;;10.21;100.00;103603.91;5273274;28;20020;-82
2022/01/28 10:04:33;;;;;;;18.30;11.25;;;;;;;10.07;100.00;103599.41;5291186;28;20023;-82
2022/01/28 10:07:22;;;;;;;24.52;12.57;;;;;;;10.28;100.00;103602.59;5272237;28;20478;-82
2022/01/28 10:09:55;;;;;;;24.83;9.73;;;;;;;10.44;100.00;103605.19;5290412;28;20015;-82
2022/01/28 10:12:35;;;;;;;29.25;13.32;;;;;;;10.38;100.00;103592.13;5291237;28;20020;-81
2022/01/28 10:15:18;;;;;;;28.38;12.38;;;;;;;10.07;100.00;103594.06;5290555;28;20019;-82
2022/01/28 10:18:06;;;;;;;30.50;14.93;;;;;;;9.66;100.00;103593.94;5273442;28;20035;-82
2022/01/28 10:20:43;;;;;;;34.33;13.15;;;;;;;9.52;100.00;103602.81;5272615;28;20103;-82
2022/01/28 10:23:14;;;;;;;48.03;16.77;;;;;;;9.29;100.00;103598.84;5273229;28;20031;-82
2022/01/28 10:25:44;;;;;;;34.08;14.25;;;;;;;9.00;100.00;103594.31;5272821;28;20020;-82
2022/01/28 10:28:15;;;;;;;34.67;14.68;;;;;;;8.92;100.00;103592.06;5272903;28;20028;-82
2022/01/28 10:30:46;;;;;;;33.58;12.18;;;;;;;8.83;100.00;103576.53;5254814;28;20019;-82
2022/01/28 10:33:20;;;;;;;27.17;12.43;;;;;;;8.72;100.00;103573.63;5272391;28;20149;-81
2022/01/28 10:35:53;;;;;;;143.18;66.93;;;;;;;8.74;100.00;103579.75;5272262;28;20645;-82
2022/01/28 10:38:42;;;;;;;31.52;13.82;;;;;;;8.77;100.00;103576.91;5271465;28;20479;-82
2022/01/28 10:41:16;;;;;;;28.08;12.13;;;;;;;8.71;100.00;103575.44;5255056;28;20509;-82
2022/01/28 10:43:51;;;;;;;36.08;14.15;;;;;;;8.76;100.00;103581.38;5271710;28;20027;-81
2022/01/28 10:46:55;;;;;;;35.35;15.00;;;;;;;8.73;100.00;103589.59;5271499;28;20019;-81
2022/01/28 10:49:29;;;;;;;35.00;14.00;;;;;;;8.84;100.00;103582.78;5287917;28;20038;-82
2022/01/28 10:52:04;;;;;;;34.00;12.07;;;;;;;8.90;100.00;103577.06;5290367;28;20023;-82
2022/01/28 10:54:36;;;;;;;;;;;;;;;8.93;100.00;103583.09;5290738;28;20020;-82
2022/01/28 10:57:08;;;;;;;30.88;11.95;;;;;;;8.89;100.00;103581.56;5271478;28;19918;-82
2022/01/28 10:59:40;;;;;;;33.67;13.88;;;;;;;9.18;100.00;103582.50;5294131;28;20027;-84
2022/01/28 11:02:11;;;;;;;28.02;12.82;;;;;;;9.16;100.00;103581.75;5265967;28;20020;-80
2022/01/28 11:04:43;;;;;;;39.85;13.07;;;;;;;9.18;100.00;103574.47;5270777;28;20016;-81
2022/01/28 11:07:13;;;;;;;30.25;15.07;;;;;;;9.24;100.00;103581.31;5288776;28;20028;-80
2022/01/28 11:09:46;;;;;;;33.80;12.73;;;;;;;9.32;100.00;103576.34;5269685;28;20024;-81
2022/01/28 11:12:17;;;;;;;35.47;15.90;;;;;;;9.26;100.00;103587.44;5289088;28;20054;-81
2022/01/28 11:14:48;;;;;;;40.33;12.82;;;;;;;9.23;100.00;103582.25;5269735;28;20020;-81
2022/01/28 11:17:18;;;;;;;37.42;12.48;;;;;;;9.23;100.00;103579.56;5270018;28;20027;-81
2022/01/28 11:19:52;;;;;;;31.00;11.80;;;;;;;9.29;100.00;103569.38;5287714;28;20034;-81
2022/01/28 11:22:42;;;;;;;23.35;10.00;;;;;;;9.57;100.00;103565.88;5288547;28;20107;-81
2022/01/28 11:25:36;;;;;;;25.55;9.50;;;;;;;9.60;100.00;103568.38;5272885;28;20015;-80
2022/01/28 11:28:09;;;;;;;24.30;9.10;;;;;;;9.69;100.00;103569.63;5259691;28;20041;-81
2022/01/28 11:30:51;;;;;;;21.00;8.40;;;;;;;9.71;100.00;103566.84;5268228;28;20031;-81
2022/01/28 11:33:21;;;;;;;25.77;9.25;;;;;;;9.68;100.00;103561.66;5282644;28;20350;-80
2022/01/28 11:35:52;;;;;;;34.38;11.30;;;;;;;9.69;100.00;103553.56;5274804;28;20110;-81
2022/01/28 11:38:42;;;;;;;27.02;11.35;;;;;;;9.77;100.00;103556.59;5288584;28;20613;-82
2022/01/28 11:41:15;;;;;;;30.42;12.15;;;;;;;9.82;100.00;103553.63;5270400;28;20059;-81
2022/01/28 11:44:04;;;;;;;31.15;9.95;;;;;;;9.76;100.00;103552.19;5270016;28;20047;-81
2022/01/28 11:46:39;;;;;;;29.02;9.32;;;;;;;9.71;100.00;103545.41;5269416;28;20080;-82
2022/01/28 11:49:09;;;;;;;32.25;13.68;;;;;;;9.80;100.00;103536.78;5269241;28;20033;-82
2022/01/28 11:51:42;;;;;;;39.50;14.27;;;;;;;9.68;100.00;103532.19;5269674;28;20032;-82
2022/01/28 11:54:15;;;;;;;33.28;15.07;;;;;;;9.30;100.00;103524.69;5287517;28;20023;-81
2022/01/28 11:56:55;;;;;;;30.60;14.45;;;;;;;9.48;100.00;103520.88;5259188;28;20053;-81
2022/01/28 11:59:28;;;;;;;35.47;14.02;;;;;;;9.67;100.00;103533.16;5279449;28;20027;-81
2022/01/28 12:01:58;;;;;;;36.65;14.40;;;;;;;9.63;100.00;103526.25;5296189;28;20034;-81
2022/01/28 12:04:30;;;;;;;33.28;17.30;;;;;;;9.76;100.00;103529.91;5289044;28;20035;-81
2022/01/28 12:07:18;;;;;;;39.28;16.50;;;;;;;9.93;100.00;103523.47;5289203;28;20447;-81
2022/01/28 12:09:54;;;;;;;34.40;16.10;;;;;;;9.76;100.00;103521.84;5287768;28;20023;-81
2022/01/28 12:12:55;;;;;;;30.98;16.35;;;;;;;9.82;100.00;103524.16;5288016;28;20020;-81
2022/01/28 12:15:29;;;;;;;40.80;16.23;;;;;;;9.89;100.00;103524.59;5288072;28;20024;-81
2022/01/28 12:18:18;;;;;;;41.97;16.10;;;;;;;9.74;100.00;103513.03;5287503;28;20526;-81
2022/01/28 12:20:49;;;;;;;33.75;17.48;;;;;;;9.69;100.00;103507.09;5287166;28;20394;-81
2022/01/28 12:23:21;;;;;;;34.95;17.15;;;;;;;9.45;100.00;103504.13;5287113;28;20034;-79
2022/01/28 12:26:07;;;;;;;32.30;16.60;;;;;;;9.48;100.00;103498.56;5286836;28;20023;-86
2022/01/28 12:28:37;;;;;;;38.67;17.08;;;;;;;9.39;100.00;103493.78;5287569;28;20144;-81
2022/01/28 12:31:14;;;;;;;32.20;15.57;;;;;;;9.31;100.00;103483.53;5287881;28;20118;-81
2022/01/28 12:33:49;;;;;;;36.47;15.93;;;;;;;9.17;100.00;103487.06;5290746;28;20027;-80
2022/01/28 12:36:23;;;;;;;40.45;18.08;;;;;;;9.05;100.00;103488.66;5290175;28;20031;-80
2022/01/28 12:39:09;;;;;;;38.75;16.05;;;;;;;8.85;100.00;103497.03;5290394;28;20111;-80
2022/01/28 12:45:06;;;;;;;38.03;17.40;;;;;;;9.19;100.00;103495.00;5272690;28;20019;-80
2022/01/28 12:47:37;;;;;;;38.00;18.33;;;;;;;9.19;100.00;103489.66;5269773;28;20027;-80
2022/01/28 12:50:08;;;;;;;42.22;17.83;;;;;;;9.23;100.00;103491.16;5287211;28;20393;-80
2022/01/28 12:52:38;;;;;;;45.05;21.20;;;;;;;9.25;100.00;103482.09;5269362;28;20019;-80
2022/01/28 12:55:09;;;;;;;37.58;21.42;;;;;;;9.16;100.00;103487.16;5268869;28;20058;-80
2022/01/28 12:57:58;;;;;;;44.50;20.77;;;;;;;8.72;100.00;103479.94;5287791;28;20490;-80
2022/01/28 13:00:28;;;;;;;50.08;25.35;;;;;;;8.42;100.00;103478.09;5273777;28;20357;-80
2022/01/28 13:02:59;;;;;;;48.25;22.98;;;;;;;8.08;100.00;103468.41;5283072;28;20016;-81
2022/01/28 13:08:27;;;;;;;40.25;19.90;;;;;;;7.19;100.00;103472.41;5284882;28;20352;-79
2022/01/28 13:11:03;;;;;;;53.72;22.10;;;;;;;6.98;100.00;103463.69;5285690;28;20470;-79
2022/01/28 13:13:34;;;;;;;47.72;23.00;;;;;;;6.90;100.00;103469.41;5285177;28;20054;-79
2022/01/28 13:16:04;;;;;;;57.58;23.02;;;;;;;6.70;100.00;103473.09;5284970;28;20134;-79